Time;durP1;ratioP1;P1;durP2;ratioP2;P2;SDS_P1;SDS_P2;PMS_P1;PMS_P2;Temp;Humidity;BMP_temperature;BMP_pressure;BME280_temperature;BME280_humidity;BME280_pressure;Samples;Min_cycle;Max_cycle;Signal;HPM_P1;HPM_P2
2023/08/17 00:01:51;;;;;;;0.57;0.40;;;25.90;49.20;;;;;;5065240;28;20108;-67
2023/08/17 00:04:17;;;;;;;0.38;0.22;;;25.90;49.20;;;;;;5048647;28;20118;-66
2023/08/17 00:06:43;;;;;;;0.57;0.38;;;25.90;49.10;;;;;;5060321;28;20171;-67
2023/08/17 00:09:12;;;;;;;1.90;0.50;;;25.90;49.10;;;;;;5066642;28;20404;-67
2023/08/17 00:11:38;;;;;;;1.00;0.40;;;25.90;49.10;;;;;;5069717;28;20024;-69
2023/08/17 00:14:05;;;;;;;1.23;0.50;;;25.90;49.00;;;;;;5067257;28;20036;-68
2023/08/17 00:16:31;;;;;;;0.90;0.45;;;25.80;49.00;;;;;;5060082;28;20055;-67
2023/08/17 00:18:57;;;;;;;1.27;0.50;;;25.80;49.00;;;;;;5066994;28;20455;-65
2023/08/17 00:21:23;;;;;;;0.63;0.40;;;25.80;48.90;;;;;;5062441;28;20033;-65
2023/08/17 00:23:49;;;;;;;0.90;0.50;;;25.80;48.90;;;;;;5068322;28;20380;-67
2023/08/17 00:26:15;;;;;;;0.32;0.28;;;25.80;48.90;;;;;;5069230;28;20028;-69
2023/08/17 00:28:41;;;;;;;0.70;0.40;;;25.80;48.90;;;;;;5047251;28;20028;-65
2023/08/17 00:31:07;;;;;;;0.73;0.35;;;25.80;48.90;;;;;;5044647;28;20451;-65
2023/08/17 00:33:33;;;;;;;1.13;0.30;;;25.80;48.90;;;;;;5061957;28;20083;-65
2023/08/17 00:35:59;;;;;;;1.05;0.40;;;25.80;48.90;;;;;;5069430;28;20020;-70
2023/08/17 00:38:25;;;;;;;1.55;0.73;;;25.80;48.90;;;;;;5056504;28;20059;-68
2023/08/17 00:40:51;;;;;;;0.30;0.30;;;25.80;48.90;;;;;;5037566;28;20053;-70
2023/08/17 00:43:17;;;;;;;0.95;0.32;;;25.80;49.50;;;;;;5076000;28;20021;-67
2023/08/17 00:45:46;;;;;;;1.23;0.50;;;25.80;48.90;;;;;;5060205;28;20102;-67
2023/08/17 00:48:13;;;;;;;0.88;0.50;;;25.80;48.90;;;;;;5045072;28;20165;-68
2023/08/17 00:50:40;;;;;;;1.00;0.40;;;25.80;48.90;;;;;;5048107;28;20044;-68
2023/08/17 00:53:07;;;;;;;1.90;0.50;;;25.80;48.90;;;;;;5048522;28;20036;-66
2023/08/17 00:55:36;;;;;;;0.75;0.28;;;25.80;48.90;;;;;;5049312;28;20051;-67
2023/08/17 00:58:02;;;;;;;1.05;0.40;;;25.80;48.90;;;;;;5045633;28;20097;-67
2023/08/17 01:00:28;;;;;;;1.70;0.60;;;25.70;48.80;;;;;;5044522;28;20486;-66
2023/08/17 01:02:54;;;;;;;0.98;0.43;;;25.70;48.80;;;;;;5064301;28;20423;-66
2023/08/17 01:05:21;;;;;;;0.73;0.35;;;25.70;48.80;;;;;;5055322;28;21645;-67
2023/08/17 01:07:47;;;;;;;1.17;0.50;;;25.70;48.80;;;;;;5070692;28;20317;-67
2023/08/17 01:10:14;;;;;;;1.02;0.30;;;25.70;48.80;;;;;;5063916;28;20025;-69
2023/08/17 01:12:43;;;;;;;1.23;0.38;;;25.70;48.90;;;;;;5049288;28;20435;-69
2023/08/17 01:15:18;;;;;;;0.88;0.35;;;25.70;48.80;;;;;;5061894;28;20024;-67
2023/08/17 01:18:04;;;;;;;0.85;0.40;;;25.60;48.80;;;;;;5065739;28;20123;-66
2023/08/17 01:20:32;;;;;;;1.45;0.45;;;25.70;48.80;;;;;;5064146;28;20048;-66
2023/08/17 01:23:05;;;;;;;1.27;0.50;;;25.60;48.80;;;;;;5070773;28;20025;-68
2023/08/17 01:25:36;;;;;;;0.70;0.40;;;25.70;48.80;;;;;;5039315;28;20057;-69
2023/08/17 01:28:03;;;;;;;1.38;0.52;;;25.60;48.80;;;;;;5054199;28;20032;-68
2023/08/17 01:30:33;;;;;;;0.73;0.40;;;25.60;48.80;;;;;;5065554;28;20040;-65
2023/08/17 01:33:09;;;;;;;0.70;0.38;;;25.60;48.80;;;;;;5033820;28;20032;-70
2023/08/17 01:35:48;;;;;;;1.02;0.57;;;25.60;48.80;;;;;;5058556;28;20464;-67
2023/08/17 01:38:20;;;;;;;0.82;0.40;;;25.60;48.80;;;;;;5059157;28;20047;-66
2023/08/17 01:40:48;;;;;;;1.08;0.50;;;25.60;48.80;;;;;;5065333;28;20078;-66
2023/08/17 01:43:16;;;;;;;1.05;0.50;;;25.60;48.80;;;;;;5044220;28;20032;-68
2023/08/17 01:45:44;;;;;;;1.75;0.60;;;25.60;48.90;;;;;;5067548;28;20160;-67
2023/08/17 01:48:09;;;;;;;0.68;0.32;;;25.60;49.10;;;;;;5046251;28;20147;-69
2023/08/17 01:50:36;;;;;;;1.75;0.73;;;25.60;49.00;;;;;;5061747;28;20016;-65
2023/08/17 01:53:02;;;;;;;0.70;0.45;;;25.60;49.00;;;;;;5067004;28;20432;-69
2023/08/17 01:55:28;;;;;;;0.60;0.40;;;25.60;49.00;;;;;;5050386;28;21688;-68
2023/08/17 01:57:54;;;;;;;1.17;0.60;;;25.60;49.10;;;;;;5047157;28;20032;-68
2023/08/17 02:00:20;;;;;;;1.38;0.65;;;25.50;49.00;;;;;;5044503;28;20047;-66
2023/08/17 02:02:46;;;;;;;1.48;0.90;;;25.60;49.10;;;;;;5047895;28;20030;-68
2023/08/17 02:05:12;;;;;;;0.80;0.40;;;25.50;49.10;;;;;;5045676;28;20036;-66
2023/08/17 02:07:38;;;;;;;0.73;0.40;;;25.50;49.10;;;;;;5071286;28;20023;-66
2023/08/17 02:10:04;;;;;;;0.88;0.40;;;25.60;49.20;;;;;;5045327;28;20093;-68
2023/08/17 02:12:31;;;;;;;1.58;0.50;;;25.50;49.10;;;;;;5032557;28;20112;-66
2023/08/17 02:14:57;;;;;;;1.77;0.50;;;25.50;49.20;;;;;;5057636;28;20116;-68
2023/08/17 02:17:23;;;;;;;0.88;0.50;;;25.50;49.20;;;;;;5048284;28;20080;-65
2023/08/17 02:19:49;;;;;;;1.00;0.45;;;25.50;49.30;;;;;;5066739;28;20044;-69
2023/08/17 02:22:15;;;;;;;1.08;0.60;;;25.50;49.20;;;;;;5046425;28;20033;-68
2023/08/17 02:24:41;;;;;;;1.77;0.50;;;25.50;49.20;;;;;;5041831;28;20029;-67
2023/08/17 02:27:09;;;;;;;1.42;0.60;;;25.50;49.20;;;;;;5062201;28;20403;-68
2023/08/17 02:29:34;;;;;;;1.27;0.50;;;25.50;49.20;;;;;;5062355;28;20031;-68
2023/08/17 02:32:00;;;;;;;0.73;0.45;;;25.50;49.20;;;;;;5065620;28;20028;-66
2023/08/17 02:34:26;;;;;;;1.83;0.60;;;25.50;49.20;;;;;;5066759;28;20033;-68
2023/08/17 02:36:52;;;;;;;1.75;0.60;;;25.50;49.20;;;;;;5041640;28;20040;-67
2023/08/17 02:39:18;;;;;;;0.77;0.38;;;25.50;49.30;;;;;;5040483;28;20087;-67
2023/08/17 02:41:44;;;;;;;1.10;0.45;;;25.50;49.30;;;;;;5064903;28;20463;-68
2023/08/17 02:44:10;;;;;;;1.00;0.50;;;25.50;49.30;;;;;;5064843;28;20111;-66
2023/08/17 02:46:36;;;;;;;0.95;0.40;;;25.50;49.30;;;;;;5061843;28;20048;-67
2023/08/17 02:49:02;;;;;;;2.00;0.60;;;25.50;49.30;;;;;;5043486;28;20036;-68
2023/08/17 02:51:28;;;;;;;0.88;0.40;;;25.50;49.30;;;;;;5068381;28;20024;-69
2023/08/17 02:53:54;;;;;;;3.28;0.85;;;25.50;49.30;;;;;;5036363;28;20051;-68
2023/08/17 02:56:20;;;;;;;0.93;0.50;;;25.40;49.20;;;;;;5041184;28;20024;-67
2023/08/17 02:58:47;;;;;;;1.67;0.50;;;25.40;49.20;;;;;;5040775;28;20140;-69
2023/08/17 03:01:13;;;;;;;0.93;0.50;;;25.40;49.20;;;;;;5059702;28;20171;-66
2023/08/17 03:03:39;;;;;;;0.80;0.52;;;25.40;49.20;;;;;;5057879;28;20032;-66
2023/08/17 03:06:05;;;;;;;1.90;0.40;;;25.40;49.20;;;;;;5044533;28;20427;-69
2023/08/17 03:08:31;;;;;;;1.20;0.38;;;25.40;49.20;;;;;;5066901;28;20062;-66
2023/08/17 03:10:57;;;;;;;1.15;0.32;;;25.40;49.20;;;;;;5063289;28;20013;-66
2023/08/17 03:13:23;;;;;;;2.92;0.60;;;25.40;49.20;;;;;;5036196;28;20126;-68
2023/08/17 03:15:50;;;;;;;1.13;0.70;;;25.40;49.20;;;;;;5059703;28;20086;-67
2023/08/17 03:18:16;;;;;;;0.80;0.40;;;25.40;49.20;;;;;;5050475;28;20062;-68
2023/08/17 03:20:43;;;;;;;1.00;0.30;;;25.40;49.20;;;;;;5046171;28;21741;-66
2023/08/17 03:23:09;;;;;;;1.92;0.43;;;25.40;49.20;;;;;;5060860;28;20111;-67
2023/08/17 03:25:36;;;;;;;1.00;0.40;;;25.40;49.20;;;;;;5047836;28;20128;-68
2023/08/17 03:28:02;;;;;;;1.17;0.40;;;25.30;49.20;;;;;;5061843;28;20472;-71
2023/08/17 03:30:28;;;;;;;1.33;0.45;;;25.30;49.20;;;;;;5025034;28;20078;-68
2023/08/17 03:32:54;;;;;;;0.50;0.35;;;25.30;49.10;;;;;;5040073;28;20028;-68
2023/08/17 03:35:19;;;;;;;1.38;0.57;;;25.30;49.10;;;;;;5060987;28;20021;-66
2023/08/17 03:37:46;;;;;;;0.98;0.47;;;25.30;49.10;;;;;;5048675;28;20036;-70
2023/08/17 03:40:13;;;;;;;0.52;0.30;;;25.30;49.10;;;;;;5034076;28;20358;-69
2023/08/17 03:42:39;;;;;;;1.83;0.52;;;25.30;49.10;;;;;;5044868;28;20107;-66
2023/08/17 03:45:05;;;;;;;0.82;0.40;;;25.30;49.10;;;;;;5043515;28;20389;-68
2023/08/17 03:47:32;;;;;;;1.10;0.50;;;25.30;49.20;;;;;;5041831;28;20130;-68
2023/08/17 03:50:00;;;;;;;1.13;0.50;;;25.30;49.20;;;;;;5039772;28;20123;-67
2023/08/17 03:52:26;;;;;;;1.73;0.60;;;25.30;49.20;;;;;;5060733;28;20115;-69
2023/08/17 03:54:52;;;;;;;1.63;0.32;;;25.30;49.20;;;;;;5073417;28;20050;-69
2023/08/17 03:57:18;;;;;;;1.05;0.40;;;25.30;49.20;;;;;;5045704;28;20118;-66
2023/08/17 03:59:44;;;;;;;0.85;0.38;;;25.30;49.20;;;;;;5070540;28;20472;-66
2023/08/17 04:02:10;;;;;;;1.52;0.50;;;25.30;49.20;;;;;;5061974;28;20131;-65
2023/08/17 04:04:36;;;;;;;1.27;0.50;;;25.30;49.20;;;;;;5040639;28;20029;-68
2023/08/17 04:07:02;;;;;;;1.05;0.40;;;25.30;49.20;;;;;;5041289;28;20098;-71
2023/08/17 04:09:28;;;;;;;1.20;0.50;;;25.30;49.20;;;;;;5064285;28;20036;-68
2023/08/17 04:11:55;;;;;;;0.95;0.40;;;25.20;49.10;;;;;;5044579;28;20420;-68
2023/08/17 04:14:21;;;;;;;1.88;0.50;;;25.20;49.10;;;;;;5034813;28;20032;-68
2023/08/17 04:16:47;;;;;;;1.63;0.40;;;25.20;49.20;;;;;;5027473;28;20020;-68
2023/08/17 04:19:14;;;;;;;0.90;0.47;;;25.20;49.10;;;;;;5071750;28;20503;-67
2023/08/17 04:21:40;;;;;;;0.73;0.40;;;25.20;49.20;;;;;;5044574;28;20020;-66
2023/08/17 04:24:06;;;;;;;1.30;0.50;;;25.30;49.20;;;;;;5040605;28;20037;-65
2023/08/17 04:26:32;;;;;;;1.67;0.50;;;25.20;49.20;;;;;;5062052;28;20213;-67
2023/08/17 04:28:58;;;;;;;0.85;0.50;;;25.20;49.10;;;;;;5063816;28;20390;-68
2023/08/17 04:31:24;;;;;;;1.25;0.55;;;25.20;49.10;;;;;;5043305;28;20072;-68
2023/08/17 04:33:57;;;;;;;1.02;0.43;;;25.20;49.10;;;;;;5044844;28;20050;-66
2023/08/17 04:36:23;;;;;;;0.75;0.45;;;25.20;49.20;;;;;;5041865;28;20029;-68
2023/08/17 04:38:49;;;;;;;1.70;0.50;;;25.20;49.20;;;;;;5047149;28;20133;-67
2023/08/17 04:41:15;;;;;;;0.93;0.40;;;25.20;49.20;;;;;;5039598;28;20829;-69
2023/08/17 04:43:42;;;;;;;0.98;0.55;;;25.20;49.20;;;;;;5067898;28;20131;-66
2023/08/17 04:46:09;;;;;;;0.95;0.43;;;25.20;49.20;;;;;;5044229;28;20389;-68
2023/08/17 04:48:35;;;;;;;1.52;0.60;;;25.20;49.20;;;;;;5026413;28;20075;-69
2023/08/17 04:51:01;;;;;;;1.25;0.60;;;25.20;49.20;;;;;;5075477;28;20033;-69
2023/08/17 04:53:27;;;;;;;1.50;0.40;;;25.10;49.10;;;;;;5045720;28;20025;-69
2023/08/17 04:55:53;;;;;;;0.80;0.45;;;25.20;49.20;;;;;;5047302;28;20393;-67
2023/08/17 04:58:19;;;;;;;0.60;0.30;;;25.10;49.10;;;;;;5037762;28;20032;-67
2023/08/17 05:00:45;;;;;;;1.17;0.47;;;25.10;49.20;;;;;;5068699;28;20538;-66
2023/08/17 05:03:11;;;;;;;1.48;0.70;;;25.10;49.20;;;;;;5063545;28;20116;-65
2023/08/17 05:05:40;;;;;;;1.85;0.40;;;25.10;49.10;;;;;;5029081;28;20106;-68
2023/08/17 05:08:09;;;;;;;1.35;0.55;;;25.10;49.20;;;;;;5044827;28;20100;-71
2023/08/17 05:10:36;;;;;;;0.73;0.40;;;25.10;49.20;;;;;;5050035;28;20123;-66
2023/08/17 05:13:02;;;;;;;0.95;0.40;;;25.10;49.20;;;;;;5070536;28;20112;-68
2023/08/17 05:15:29;;;;;;;2.20;0.50;;;25.10;49.20;;;;;;5043628;28;20033;-68
2023/08/17 05:17:56;;;;;;;1.17;0.50;;;25.10;49.20;;;;;;5059578;28;20075;-65
2023/08/17 05:20:22;;;;;;;2.25;0.50;;;25.10;49.20;;;;;;5040873;28;20051;-68
2023/08/17 05:22:48;;;;;;;1.40;0.47;;;25.10;49.20;;;;;;5040049;28;20025;-66
2023/08/17 05:25:14;;;;;;;1.38;0.43;;;25.10;49.20;;;;;;5036754;28;20857;-66
2023/08/17 05:27:41;;;;;;;1.45;0.43;;;25.10;49.80;;;;;;5042893;28;20037;-67
2023/08/17 05:30:08;;;;;;;2.10;0.45;;;25.10;49.20;;;;;;5047346;28;20120;-66
2023/08/17 05:32:33;;;;;;;1.88;0.80;;;25.10;49.20;;;;;;5065751;28;20115;-67
2023/08/17 05:35:00;;;;;;;0.93;0.50;;;25.10;49.20;;;;;;5043643;28;20047;-67
2023/08/17 05:37:26;;;;;;;2.10;0.60;;;25.10;49.20;;;;;;5045713;28;20115;-69
2023/08/17 05:39:52;;;;;;;0.75;0.40;;;25.10;49.20;;;;;;5045141;28;20037;-66
2023/08/17 05:42:18;;;;;;;2.95;0.60;;;25.10;49.20;;;;;;5071479;28;20425;-69
2023/08/17 05:44:45;;;;;;;1.00;0.55;;;25.10;49.20;;;;;;5063087;28;20027;-66
2023/08/17 05:47:12;;;;;;;2.88;0.47;;;25.10;49.20;;;;;;5041047;28;20456;-66
2023/08/17 05:49:38;;;;;;;1.88;0.65;;;25.10;49.20;;;;;;5050949;28;20115;-68
2023/08/17 05:52:05;;;;;;;1.40;0.50;;;25.10;49.20;;;;;;5045153;28;20046;-67
2023/08/17 05:54:30;;;;;;;1.27;0.40;;;25.10;49.20;;;;;;5064889;28;20024;-67
2023/08/17 05:56:56;;;;;;;1.92;0.70;;;25.10;49.20;;;;;;5064237;28;20122;-65
2023/08/17 05:59:22;;;;;;;0.75;0.40;;;25.10;49.20;;;;;;5063704;28;20400;-69
2023/08/17 06:01:48;;;;;;;0.60;0.30;;;25.10;49.20;;;;;;5064354;28;20356;-70
2023/08/17 06:04:14;;;;;;;0.50;0.30;;;25.10;49.20;;;;;;5025161;28;20473;-68
2023/08/17 06:06:40;;;;;;;0.98;0.45;;;25.10;49.20;;;;;;5068660;28;20928;-66
2023/08/17 06:09:07;;;;;;;1.30;0.50;;;25.10;49.30;;;;;;5063766;28;20051;-69
2023/08/17 06:11:34;;;;;;;1.02;0.32;;;25.10;49.20;;;;;;5060747;28;20024;-66
2023/08/17 06:14:00;;;;;;;2.22;0.63;;;25.20;49.30;;;;;;5056520;28;20041;-71
2023/08/17 06:16:26;;;;;;;1.17;0.52;;;25.10;49.20;;;;;;5060580;28;20040;-67
2023/08/17 06:18:52;;;;;;;1.58;0.50;;;25.10;49.20;;;;;;5064721;28;20032;-64
2023/08/17 06:21:18;;;;;;;0.57;0.30;;;25.10;49.20;;;;;;5063434;28;20017;-66
2023/08/17 06:23:44;;;;;;;1.08;0.52;;;25.10;49.20;;;;;;5065767;28;20036;-67
2023/08/17 06:26:10;;;;;;;1.15;0.65;;;25.10;49.20;;;;;;5067528;28;20081;-67
2023/08/17 06:28:36;;;;;;;0.88;0.40;;;25.10;49.20;;;;;;5046886;28;20033;-67
2023/08/17 06:31:01;;;;;;;0.80;0.50;;;25.20;49.20;;;;;;5062600;28;20025;-68
2023/08/17 06:33:27;;;;;;;1.55;0.70;;;25.20;49.20;;;;;;5060108;28;20376;-67
2023/08/17 06:35:53;;;;;;;2.53;0.50;;;25.10;49.20;;;;;;5043814;28;20412;-66
2023/08/17 06:38:19;;;;;;;1.75;0.60;;;25.20;49.30;;;;;;5068917;28;20660;-68
2023/08/17 06:40:46;;;;;;;1.02;0.50;;;25.10;49.20;;;;;;5058705;28;20051;-70
2023/08/17 06:43:12;;;;;;;1.08;0.30;;;25.10;49.20;;;;;;5046451;28;20037;-68
2023/08/17 06:45:38;;;;;;;1.83;0.57;;;25.10;49.20;;;;;;5063781;28;20392;-65
2023/08/17 06:48:04;;;;;;;1.25;0.50;;;25.20;49.30;;;;;;5047894;28;20091;-66
2023/08/17 06:50:30;;;;;;;1.25;0.40;;;25.10;49.20;;;;;;5070377;28;20322;-68
2023/08/17 06:52:56;;;;;;;1.60;0.60;;;25.10;49.30;;;;;;5057972;28;20115;-66
2023/08/17 06:55:22;;;;;;;0.85;0.40;;;25.10;49.30;;;;;;5081897;28;20130;-67
2023/08/17 06:57:51;;;;;;;1.42;0.40;;;25.10;49.30;;;;;;5058671;28;20148;-65
2023/08/17 07:00:21;;;;;;;1.17;0.60;;;25.10;49.30;;;;;;5055368;28;20063;-65
2023/08/17 07:02:48;;;;;;;0.52;0.38;;;25.10;49.30;;;;;;5070795;28;20086;-64
2023/08/17 07:05:15;;;;;;;1.55;0.50;;;25.20;49.40;;;;;;5070335;28;20343;-65
2023/08/17 07:07:42;;;;;;;1.52;0.70;;;25.20;49.40;;;;;;5078507;28;20135;-67
2023/08/17 07:10:09;;;;;;;1.30;0.60;;;25.20;49.40;;;;;;5072932;28;20077;-67
2023/08/17 07:12:35;;;;;;;1.15;0.52;;;25.20;49.40;;;;;;5054087;28;20033;-68
2023/08/17 07:15:00;;;;;;;0.80;0.52;;;25.20;49.40;;;;;;5071908;28;20055;-68
2023/08/17 07:17:26;;;;;;;1.48;0.52;;;25.20;49.50;;;;;;5072961;28;20033;-65
2023/08/17 07:19:52;;;;;;;1.63;0.50;;;25.20;49.50;;;;;;5091892;28;20051;-66
2023/08/17 07:22:18;;;;;;;1.65;0.60;;;25.20;49.50;;;;;;5085860;28;20052;-66
2023/08/17 07:24:44;;;;;;;0.70;0.60;;;25.20;49.50;;;;;;5063255;28;20577;-66
2023/08/17 07:27:10;;;;;;;1.77;0.60;;;25.20;49.50;;;;;;5083853;28;20103;-64
2023/08/17 07:29:36;;;;;;;0.85;0.50;;;25.20;49.50;;;;;;5085541;28;20035;-66
2023/08/17 07:32:02;;;;;;;0.95;0.50;;;25.20;49.50;;;;;;5080563;28;20060;-66
2023/08/17 07:34:31;;;;;;;0.77;0.43;;;25.20;49.50;;;;;;5083514;28;20032;-66
2023/08/17 07:36:57;;;;;;;1.02;0.50;;;25.20;49.50;;;;;;5082124;28;20044;-65
2023/08/17 07:39:23;;;;;;;0.75;0.28;;;25.20;49.50;;;;;;5083907;28;20119;-66
2023/08/17 07:41:49;;;;;;;0.50;0.30;;;25.20;49.50;;;;;;5082524;28;20103;-65
2023/08/17 07:44:15;;;;;;;1.05;0.55;;;25.20;49.50;;;;;;5049356;28;20433;-67
2023/08/17 07:46:41;;;;;;;0.65;0.40;;;25.20;49.50;;;;;;5083903;28;20040;-68
2023/08/17 07:49:07;;;;;;;0.90;0.50;;;25.20;49.50;;;;;;5052813;28;20123;-67
2023/08/17 07:51:33;;;;;;;2.13;0.50;;;25.20;49.50;;;;;;5071240;28;20037;-65
2023/08/17 07:54:02;;;;;;;1.08;0.60;;;25.20;49.50;;;;;;5066351;28;20115;-67
2023/08/17 07:56:28;;;;;;;1.40;0.57;;;25.20;49.50;;;;;;5073122;28;20251;-64
2023/08/17 07:58:54;;;;;;;1.10;0.40;;;25.20;49.50;;;;;;5073412;28;20144;-66
2023/08/17 08:01:20;;;;;;;0.80;0.47;;;25.20;49.50;;;;;;5080111;28;20389;-65
2023/08/17 08:03:46;;;;;;;0.75;0.38;;;25.20;49.50;;;;;;5067435;28;20188;-66
2023/08/17 08:06:12;;;;;;;0.82;0.50;;;25.20;49.60;;;;;;5083720;28;20115;-67
2023/08/17 08:08:42;;;;;;;1.48;0.50;;;25.20;49.60;;;;;;5061117;28;20036;-66
2023/08/17 08:11:08;;;;;;;0.63;0.40;;;25.20;49.60;;;;;;5081236;28;20020;-66
2023/08/17 08:13:34;;;;;;;0.65;0.32;;;25.20;49.60;;;;;;5083769;28;20055;-64
2023/08/17 08:16:00;;;;;;;1.17;0.43;;;25.20;49.60;;;;;;5081253;28;20118;-67
2023/08/17 08:18:26;;;;;;;0.80;0.43;;;25.20;49.60;;;;;;5072824;28;20024;-67
2023/08/17 08:20:52;;;;;;;1.58;0.65;;;25.20;49.70;;;;;;5077041;28;20119;-65
2023/08/17 08:23:17;;;;;;;0.75;0.40;;;25.20;49.70;;;;;;5090506;28;20312;-65
2023/08/17 08:25:43;;;;;;;0.65;0.38;;;25.20;49.70;;;;;;5088364;28;20115;-66
2023/08/17 08:28:09;;;;;;;1.17;0.47;;;25.20;49.70;;;;;;5094911;28;20028;-67
2023/08/17 08:30:35;;;;;;;1.42;0.55;;;25.20;49.70;;;;;;5095012;28;20126;-67
2023/08/17 08:33:02;;;;;;;1.52;0.73;;;25.30;49.70;;;;;;5094855;28;20031;-66
2023/08/17 08:35:29;;;;;;;1.75;0.70;;;25.20;49.70;;;;;;5076624;28;20093;-64
2023/08/17 08:37:58;;;;;;;1.20;0.70;;;25.20;49.70;;;;;;5083771;28;20024;-64
2023/08/17 08:40:29;;;;;;;0.60;0.50;;;25.20;49.70;;;;;;5074383;28;20157;-68
2023/08/17 08:42:56;;;;;;;1.65;0.50;;;25.20;49.70;;;;;;5074916;28;20115;-66
2023/08/17 08:45:23;;;;;;;1.73;0.80;;;25.30;49.80;;;;;;5069829;28;20024;-66
2023/08/17 08:47:50;;;;;;;0.75;0.40;;;25.20;49.70;;;;;;5079995;28;20442;-68
2023/08/17 08:50:23;;;;;;;1.27;0.47;;;25.20;49.70;;;;;;5077698;28;20017;-66
2023/08/17 08:52:59;;;;;;;1.40;0.50;;;25.30;49.80;;;;;;5083332;28;20143;-67
2023/08/17 08:55:30;;;;;;;1.02;0.60;;;25.20;49.70;;;;;;5077553;28;20044;-64
2023/08/17 08:57:56;;;;;;;1.95;0.68;;;25.20;49.80;;;;;;5074096;28;20028;-68
2023/08/17 09:00:24;;;;;;;1.02;0.47;;;25.20;49.80;;;;;;5079775;28;20140;-67
2023/08/17 09:02:51;;;;;;;2.08;0.60;;;25.30;49.80;;;;;;5083422;28;20028;-65
2023/08/17 09:05:18;;;;;;;1.20;0.70;;;25.30;49.90;;;;;;5084634;28;20053;-68
2023/08/17 09:07:48;;;;;;;1.25;0.60;;;25.30;50.10;;;;;;5068323;28;20355;-62
2023/08/17 09:10:16;;;;;;;0.65;0.40;;;25.30;50.20;;;;;;5090245;28;20513;-63
2023/08/17 09:12:45;;;;;;;5.45;0.77;;;25.30;50.30;;;;;;5094323;28;20063;-67
2023/08/17 09:15:11;;;;;;;1.10;0.50;;;25.30;50.40;;;;;;5075829;28;20086;-67
2023/08/17 09:17:38;;;;;;;3.33;0.90;;;25.30;50.40;;;;;;5069437;28;20039;-64
2023/08/17 09:20:07;;;;;;;1.58;0.82;;;25.30;50.50;;;;;;5094095;28;20036;-64
2023/08/17 09:22:44;;;;;;;3.25;0.73;;;25.30;50.50;;;;;;5054018;28;20025;-68
2023/08/17 09:25:11;;;;;;;1.40;0.73;;;25.30;50.60;;;;;;5036058;28;20403;-65
2023/08/17 09:27:38;;;;;;;1.58;0.88;;;25.40;50.60;;;;;;5053931;28;20075;-66
2023/08/17 09:30:06;;;;;;;1.08;0.77;;;25.40;50.50;;;;;;5053796;28;20025;-65
2023/08/17 09:32:33;;;;;;;1.45;0.80;;;25.40;50.40;;;;;;5064029;28;20059;-64
2023/08/17 09:35:05;;;;;;;1.67;0.82;;;25.40;50.40;;;;;;5059011;28;20343;-62
2023/08/17 09:37:32;;;;;;;1.55;0.70;;;25.40;50.30;;;;;;5093857;28;20032;-66
2023/08/17 09:39:59;;;;;;;2.08;0.93;;;25.40;50.30;;;;;;5071737;28;20088;-63
2023/08/17 09:42:27;;;;;;;1.70;0.80;;;25.50;50.30;;;;;;5078008;28;20040;-64
2023/08/17 09:44:53;;;;;;;2.15;0.90;;;25.50;50.30;;;;;;5073871;28;20028;-64
2023/08/17 09:47:23;;;;;;;1.00;0.80;;;25.50;50.20;;;;;;5073250;28;20146;-63
2023/08/17 09:49:51;;;;;;;1.80;0.90;;;25.40;50.10;;;;;;5073201;28;20040;-65
2023/08/17 09:52:19;;;;;;;1.73;1.02;;;25.50;50.20;;;;;;5054271;28;20037;-64
2023/08/17 09:54:49;;;;;;;1.50;1.02;;;25.40;50.10;;;;;;5049184;28;20406;-64
2023/08/17 09:57:16;;;;;;;0.95;0.70;;;25.50;50.10;;;;;;5072876;28;20454;-63
2023/08/17 09:59:43;;;;;;;2.25;0.93;;;25.50;50.10;;;;;;5072508;28;20041;-66
2023/08/17 10:02:20;;;;;;;1.73;0.90;;;25.50;50.10;;;;;;5074235;28;20037;-64
2023/08/17 10:04:53;;;;;;;1.67;0.90;;;25.50;50.10;;;;;;5071961;28;20035;-64
2023/08/17 10:07:21;;;;;;;1.08;0.70;;;25.50;50.10;;;;;;5078340;28;20083;-63
2023/08/17 10:10:03;;;;;;;1.42;0.82;;;25.50;50.10;;;;;;5062926;28;20064;-66
2023/08/17 10:12:36;;;;;;;1.85;0.77;;;25.50;50.10;;;;;;5071613;28;20025;-66
2023/08/17 10:15:08;;;;;;;1.73;0.98;;;25.50;50.00;;;;;;5073242;28;20116;-66
2023/08/17 10:17:50;;;;;;;1.38;1.10;;;25.50;50.10;;;;;;5049470;28;20040;-65
2023/08/17 10:20:17;;;;;;;1.92;1.13;;;25.50;50.10;;;;;;5067370;28;20044;-67
2023/08/17 10:22:51;;;;;;;1.13;0.73;;;25.50;50.10;;;;;;5064492;28;20350;-70
2023/08/17 10:25:19;;;;;;;2.08;1.00;;;25.50;50.20;;;;;;5061517;28;20099;-66
2023/08/17 10:27:45;;;;;;;1.90;1.05;;;25.50;50.30;;;;;;5072757;28;20107;-70
2023/08/17 10:30:12;;;;;;;2.20;1.20;;;25.50;50.40;;;;;;5071949;28;20410;-67
2023/08/17 10:32:44;;;;;;;2.00;1.08;;;25.60;50.40;;;;;;5062164;28;20028;-70
2023/08/17 10:35:12;;;;;;;1.70;1.10;;;25.70;50.40;;;;;;5055125;28;20036;-69
2023/08/17 10:37:39;;;;;;;1.65;1.10;;;25.80;50.40;;;;;;5033515;28;20024;-66
2023/08/17 10:40:07;;;;;;;2.58;1.15;;;25.80;50.20;;;;;;5072157;28;20142;-69
2023/08/17 10:42:36;;;;;;;6.47;1.35;;;26.00;50.10;;;;;;5081772;28;20056;-67
2023/08/17 10:45:26;;;;;;;2.00;1.10;;;26.10;50.00;;;;;;5075626;28;20043;-67
2023/08/17 10:48:20;;;;;;;2.13;1.20;;;26.20;49.90;;;;;;5060211;28;20490;-66
2023/08/17 10:51:00;;;;;;;1.85;1.10;;;26.30;49.70;;;;;;5071640;28;20390;-65
2023/08/17 10:53:26;;;;;;;2.60;1.60;;;26.30;49.50;;;;;;5072022;28;20028;-68
2023/08/17 10:55:57;;;;;;;2.42;1.30;;;26.40;49.30;;;;;;5055393;28;20036;-66
2023/08/17 10:58:23;;;;;;;2.03;1.48;;;26.40;49.30;;;;;;5087547;28;20036;-65
2023/08/17 11:00:55;;;;;;;1.92;1.23;;;26.40;49.30;;;;;;5089428;28;20119;-68
2023/08/17 11:03:22;;;;;;;3.20;1.38;;;26.40;49.20;;;;;;5092331;28;20090;-67
2023/08/17 11:05:58;;;;;;;2.55;1.40;;;26.40;49.20;;;;;;5092176;28;20110;-66
2023/08/17 11:08:34;;;;;;;1.80;1.30;;;26.40;49.20;;;;;;5086976;28;20032;-65
2023/08/17 11:11:14;;;;;;;2.25;1.15;;;26.40;49.20;;;;;;5092082;28;20028;-65
2023/08/17 11:13:43;;;;;;;2.60;1.30;;;26.40;49.20;;;;;;5074222;28;20391;-67
2023/08/17 11:16:11;;;;;;;1.30;1.10;;;26.30;49.30;;;;;;5091912;28;20040;-66
2023/08/17 11:18:37;;;;;;;2.85;1.23;;;26.30;49.30;;;;;;5086605;28;20076;-69
2023/08/17 11:21:05;;;;;;;2.42;1.50;;;26.30;49.30;;;;;;5091615;28;20465;-66
2023/08/17 11:23:32;;;;;;;1.58;1.20;;;26.30;49.30;;;;;;5073750;28;20036;-68
2023/08/17 11:25:58;;;;;;;2.50;1.38;;;26.20;49.20;;;;;;5091778;28;20024;-69
2023/08/17 11:28:25;;;;;;;2.33;1.65;;;26.20;49.30;;;;;;5092084;28;20036;-68
2023/08/17 11:31:01;;;;;;;1.50;1.15;;;26.20;49.40;;;;;;5090263;28;20324;-65
2023/08/17 11:33:27;;;;;;;2.80;1.38;;;26.20;49.50;;;;;;5076927;28;20036;-68
2023/08/17 11:35:57;;;;;;;2.55;1.48;;;26.20;49.50;;;;;;5096276;28;20465;-68
2023/08/17 11:38:23;;;;;;;2.60;1.23;;;26.20;49.50;;;;;;5096055;28;20052;-66
2023/08/17 11:40:50;;;;;;;4.13;1.45;;;26.20;49.50;;;;;;5095688;28;20040;-68
2023/08/17 11:43:16;;;;;;;2.38;1.27;;;26.10;49.50;;;;;;5095972;28;20145;-68
2023/08/17 11:45:42;;;;;;;2.40;1.27;;;26.10;49.50;;;;;;5088236;28;20070;-67
2023/08/17 11:48:09;;;;;;;2.08;1.20;;;26.10;49.50;;;;;;5090959;28;20055;-67
2023/08/17 11:50:35;;;;;;;2.22;1.38;;;26.10;49.60;;;;;;5095844;28;20080;-67
2023/08/17 11:53:01;;;;;;;2.25;1.30;;;26.10;49.60;;;;;;5095765;28;20377;-68
2023/08/17 11:55:27;;;;;;;2.40;1.25;;;26.10;49.70;;;;;;5095695;28;20028;-68
2023/08/17 11:57:53;;;;;;;2.22;1.20;;;26.00;49.70;;;;;;5095810;28;20046;-67
2023/08/17 12:00:21;;;;;;;1.58;1.13;;;26.00;49.70;;;;;;5075766;28;20047;-71
2023/08/17 12:02:48;;;;;;;1.60;1.10;;;26.00;49.80;;;;;;5059504;28;20036;-67
2023/08/17 12:05:23;;;;;;;1.85;1.30;;;26.00;49.80;;;;;;5092881;28;20074;-67
2023/08/17 12:07:49;;;;;;;2.88;1.30;;;26.00;49.90;;;;;;5082037;28;20108;-66
2023/08/17 12:10:17;;;;;;;2.13;1.25;;;26.00;49.90;;;;;;5074899;28;20342;-68
2023/08/17 12:12:43;;;;;;;2.78;1.15;;;26.00;50.00;;;;;;5067151;28;20138;-66
2023/08/17 12:15:11;;;;;;;3.38;1.08;;;25.90;50.00;;;;;;5051381;28;20051;-66
2023/08/17 12:17:52;;;;;;;4.47;1.45;;;26.00;50.10;;;;;;5066748;28;20036;-67
2023/08/17 12:20:19;;;;;;;13.20;2.70;;;25.90;50.10;;;;;;5069406;28;20347;-64
2023/08/17 12:22:47;;;;;;;15.98;2.92;;;25.90;50.20;;;;;;5083362;28;20047;-61
2023/08/17 12:25:13;;;;;;;10.40;2.70;;;25.90;50.30;;;;;;5069841;28;20024;-66
2023/08/17 12:27:39;;;;;;;7.15;1.70;;;26.00;50.40;;;;;;5072809;28;20031;-61
2023/08/17 12:30:11;;;;;;;6.32;2.17;;;26.00;50.40;;;;;;5086064;28;20167;-61
2023/08/17 12:32:37;;;;;;;6.63;2.40;;;25.90;50.30;;;;;;5050936;28;20078;-70
2023/08/17 12:35:03;;;;;;;4.88;1.60;;;25.90;50.30;;;;;;5079516;28;20406;-69
2023/08/17 12:37:29;;;;;;;4.03;1.50;;;25.90;50.40;;;;;;5081992;28;20325;-62
2023/08/17 12:39:55;;;;;;;5.63;1.73;;;25.90;50.40;;;;;;5067312;28;20094;-66
2023/08/17 12:42:21;;;;;;;3.95;1.58;;;25.90;50.40;;;;;;5087883;28;20028;-66
2023/08/17 12:44:48;;;;;;;3.78;1.40;;;25.90;50.40;;;;;;5074976;28;20025;-64
2023/08/17 12:47:14;;;;;;;3.42;1.40;;;25.90;50.40;;;;;;5070171;28;20113;-66